createdAt,value
2023-03-29T00:00:26.970Z,100570.84
2023-03-29T00:05:34.169Z,100556.81
2023-03-29T00:10:37.310Z,100561.34
2023-03-29T00:15:42.380Z,100586.38
2023-03-29T00:20:45.023Z,100579.59
2023-03-29T00:25:48.216Z,100589.13
2023-03-29T00:30:53.584Z,100586.66
2023-03-29T00:35:56.260Z,100586.81
2023-03-29T00:40:59.781Z,100588.31
2023-03-29T00:46:02.569Z,100583.88
2023-03-29T00:51:10.063Z,100586.91
2023-03-29T00:56:17.847Z,100585.09
2023-03-29T01:01:28.563Z,100581.84
2023-03-29T01:06:35.334Z,100572.97
2023-03-29T01:11:42.477Z,100582.81
2023-03-29T01:16:46.225Z,100573.22
2023-03-29T01:21:55.698Z,100575.63
2023-03-29T01:27:12.543Z,100565.53
2023-03-29T01:32:45.586Z,100569.69
2023-03-29T01:38:13.667Z,100574.41
2023-03-29T01:43:23.988Z,100572.13
2023-03-29T01:48:42.302Z,100557.56
2023-03-29T01:53:51.505Z,100568.44
2023-03-29T01:58:58.656Z,100569.31
2023-03-29T02:04:06.716Z,100568.69
2023-03-29T02:09:09.705Z,100569.69
2023-03-29T02:14:14.181Z,100559.34
2023-03-29T02:19:18.923Z,100562.75
2023-03-29T02:24:24.401Z,100561.94
2023-03-29T02:29:28.712Z,100551.28
2023-03-29T02:34:43.753Z,100542.09
2023-03-29T02:39:50.095Z,100562.81
2023-03-29T02:44:56.680Z,100568.78
2023-03-29T02:50:00.394Z,100556.16
2023-03-29T02:55:08.578Z,100538.66
2023-03-29T03:00:12.507Z,100543.31
2023-03-29T03:05:15.211Z,100544.31
2023-03-29T03:10:19.472Z,100537.81
2023-03-29T03:15:22.351Z,100542.44
2023-03-29T03:20:24.866Z,100544.88
2023-03-29T03:25:28.992Z,100547.81
2023-03-29T03:30:32.025Z,100535.06
2023-03-29T03:35:57.265Z,100536.81
2023-03-29T03:41:01.963Z,100530.63
2023-03-29T03:46:08.960Z,100538.53
2023-03-29T03:51:12.345Z,100520.53
2023-03-29T03:56:16.620Z,100513.78
2023-03-29T04:01:45.788Z,100524.84
2023-03-29T04:06:53.048Z,100514.13
2023-03-29T04:11:56.953Z,100515.72
2023-03-29T04:17:00.180Z,100502.47
2023-03-29T04:22:25.632Z,100498.97
2023-03-29T04:27:29.416Z,100511.25
2023-03-29T04:32:33.895Z,100508.75
2023-03-29T04:37:42.182Z,100505.22
2023-03-29T04:42:47.982Z,100492.19
2023-03-29T04:47:50.863Z,100494.75
2023-03-29T04:53:16.164Z,100532.56
2023-03-29T04:58:22.533Z,100522.00
2023-03-29T05:03:27.340Z,100517.34
2023-03-29T05:08:42.380Z,100531.53
2023-03-29T05:14:02.536Z,100525.78
2023-03-29T05:19:09.668Z,100528.66
2023-03-29T05:24:17.408Z,100516.25
2023-03-29T05:29:26.202Z,100506.44
2023-03-29T05:34:37.483Z,100512.47
2023-03-29T05:39:40.938Z,100510.91
2023-03-29T05:44:43.950Z,100503.19
2023-03-29T05:49:53.643Z,100497.06
2023-03-29T05:54:58.192Z,100494.50
2023-03-29T06:00:02.249Z,100494.44
2023-03-29T06:05:16.506Z,100495.38
2023-03-29T06:10:38.006Z,100480.50
2023-03-29T06:15:56.798Z,100478.81
2023-03-29T06:21:04.338Z,100487.53
2023-03-29T06:26:07.392Z,100486.94
2023-03-29T06:31:15.037Z,100490.56
2023-03-29T06:36:20.390Z,100487.44
2023-03-29T06:41:23.916Z,100486.75
2023-03-29T06:46:49.908Z,100485.31
2023-03-29T06:51:54.229Z,100497.63
2023-03-29T06:56:58.143Z,100493.19
2023-03-29T07:02:03.190Z,100483.16
2023-03-29T07:07:22.490Z,100475.34
2023-03-29T07:12:36.431Z,100471.13
2023-03-29T07:17:40.097Z,100492.81
2023-03-29T07:22:44.448Z,100484.59
2023-03-29T07:27:47.963Z,100468.16
2023-03-29T07:32:52.591Z,100471.13
2023-03-29T07:38:11.111Z,100473.97
2023-03-29T07:43:20.251Z,100468.19
2023-03-29T07:48:23.932Z,100462.28
2023-03-29T07:53:30.988Z,100457.94
2023-03-29T07:58:37.970Z,100455.81
2023-03-29T08:03:42.517Z,100457.50
2023-03-29T08:08:45.540Z,100445.84
2023-03-29T08:13:52.623Z,100442.19
2023-03-29T08:19:14.853Z,100451.47
2023-03-29T08:24:36.508Z,100441.00
2023-03-29T08:29:46.056Z,100435.53
2023-03-29T08:34:49.827Z,100430.41
2023-03-29T08:40:08.692Z,100418.84
2023-03-29T08:46:03.207Z,100419.44
2023-03-29T08:51:54.335Z,100403.09
2023-03-29T08:57:11.333Z,100395.94
2023-03-29T09:02:24.321Z,100387.66
2023-03-29T09:07:31.726Z,100379.25
2023-03-29T09:13:15.459Z,100376.50
2023-03-29T09:19:15.872Z,100384.16
2023-03-29T09:24:52.418Z,100378.16
2023-03-29T09:30:05.018Z,100373.56
2023-03-29T09:35:45.206Z,100368.06
2023-03-29T09:40:52.096Z,100364.19
2023-03-29T09:46:01.275Z,100370.06
2023-03-29T09:51:07.957Z,100359.34
2023-03-29T09:56:16.143Z,100342.28
2023-03-29T10:01:26.305Z,100357.56
2023-03-29T10:06:29.657Z,100357.88
2023-03-29T10:11:37.207Z,100363.22
2023-03-29T10:16:42.555Z,100374.38
2023-03-29T10:21:49.113Z,100370.00
2023-03-29T10:26:57.394Z,100371.25
2023-03-29T10:32:00.170Z,100362.47
2023-03-29T10:37:03.595Z,100373.88
2023-03-29T10:42:24.293Z,100368.03
2023-03-29T10:47:32.002Z,100364.75
2023-03-29T10:52:34.599Z,100362.31
2023-03-29T10:57:51.376Z,100350.88
2023-03-29T11:03:10.061Z,100348.41
2023-03-29T11:08:18.949Z,100342.75
2023-03-29T11:13:25.792Z,100333.56
2023-03-29T11:18:40.672Z,100343.53
2023-03-29T11:24:21.293Z,100339.81
2023-03-29T11:29:58.868Z,100334.84
2023-03-29T11:35:21.412Z,100340.63
2023-03-29T11:40:53.992Z,100342.38
2023-03-29T11:46:20.917Z,100340.81
2023-03-29T11:51:45.222Z,100347.59
2023-03-29T11:57:11.400Z,100332.00
2023-03-29T12:02:30.063Z,100348.69
2023-03-29T12:07:35.593Z,100335.47
2023-03-29T12:12:44.553Z,100337.56
2023-03-29T12:18:03.059Z,100319.09
2023-03-29T12:23:08.320Z,100317.63
2023-03-29T12:28:52.419Z,100314.03
2023-03-29T12:34:09.771Z,100299.09
2023-03-29T12:39:33.105Z,100296.41
2023-03-29T12:45:08.827Z,100297.53
2023-03-29T12:50:42.158Z,100295.22
2023-03-29T12:56:17.167Z,100292.09
2023-03-29T13:01:33.148Z,100287.41
2023-03-29T13:06:50.512Z,100293.66
2023-03-29T13:11:56.813Z,100292.75
2023-03-29T13:17:18.146Z,100302.03
2023-03-29T13:22:52.836Z,100300.31
2023-03-29T13:28:13.740Z,100314.97
2023-03-29T13:33:49.563Z,100309.88
2023-03-29T13:38:54.743Z,100322.56
2023-03-29T13:43:58.903Z,100320.72
2023-03-29T13:49:09.996Z,100319.47
2023-03-29T13:54:22.984Z,100326.88
2023-03-29T13:59:58.178Z,100332.03
2023-03-29T14:05:09.800Z,100340.38
2023-03-29T14:10:16.684Z,100341.56
2023-03-29T14:15:35.700Z,100332.50
2023-03-29T14:20:39.087Z,100333.06
2023-03-29T14:25:42.637Z,100330.22
2023-03-29T14:30:50.218Z,100336.81
2023-03-29T14:35:55.941Z,100344.91
2023-03-29T14:41:01.160Z,100345.72
2023-03-29T14:46:06.596Z,100346.09
2023-03-29T14:51:10.768Z,100362.16
2023-03-29T14:56:24.914Z,100361.44
2023-03-29T15:01:28.320Z,100363.63
2023-03-29T15:06:33.068Z,100352.19
2023-03-29T15:11:40.074Z,100353.94
2023-03-29T15:16:47.192Z,100360.25
2023-03-29T15:21:55.452Z,100353.06
2023-03-29T15:27:21.311Z,100354.63
2023-03-29T15:32:26.248Z,100357.84
2023-03-29T15:37:32.248Z,100352.16
2023-03-29T15:42:37.414Z,100348.41
2023-03-29T15:47:40.395Z,100332.34
2023-03-29T15:52:43.234Z,100332.81
2023-03-29T15:57:48.460Z,100349.41
2023-03-29T16:02:52.048Z,100354.44
2023-03-29T16:07:55.238Z,100360.28
2023-03-29T16:12:59.235Z,100352.78
2023-03-29T16:18:02.312Z,100353.66
2023-03-29T16:23:16.498Z,100348.31
2023-03-29T16:28:29.257Z,100353.72
2023-03-29T16:33:32.825Z,100368.03
2023-03-29T16:38:37.815Z,100369.47
2023-03-29T16:43:40.913Z,100375.28
2023-03-29T16:48:45.412Z,100377.63
2023-03-29T16:53:49.454Z,100386.53
2023-03-29T16:58:56.809Z,100391.56
2023-03-29T17:03:59.595Z,100395.38
2023-03-29T17:09:02.232Z,100396.03
2023-03-29T17:14:06.093Z,100378.84
2023-03-29T17:19:08.992Z,100378.13
2023-03-29T17:24:11.920Z,100341.47
2023-03-29T17:29:14.746Z,100344.41
2023-03-29T17:34:19.440Z,100346.31
2023-03-29T17:39:22.578Z,100332.91
2023-03-29T17:44:25.201Z,100325.53
2023-03-29T17:49:28.192Z,100320.16
2023-03-29T17:54:33.131Z,100332.78
2023-03-29T17:59:37.205Z,100325.97
2023-03-29T18:04:40.710Z,100325.97
2023-03-29T18:09:43.490Z,100333.19
2023-03-29T18:14:47.749Z,100324.28
2023-03-29T18:19:52.320Z,100316.00
2023-03-29T18:24:55.346Z,100309.81
2023-03-29T18:29:59.062Z,100287.47
2023-03-29T18:35:03.031Z,100281.25
2023-03-29T18:40:11.699Z,100279.19
2023-03-29T18:45:16.207Z,100288.91
2023-03-29T18:50:19.510Z,100292.44
2023-03-29T18:55:22.296Z,100282.28
2023-03-29T19:00:25.430Z,100280.00
2023-03-29T19:05:28.163Z,100279.78
2023-03-29T19:10:31.938Z,100270.66
2023-03-29T19:15:35.770Z,100272.31
2023-03-29T19:20:39.153Z,100272.16
2023-03-29T19:25:43.619Z,100266.13
2023-03-29T19:30:46.868Z,100270.69
2023-03-29T19:35:53.214Z,100255.78
2023-03-29T19:40:56.138Z,100264.69
2023-03-29T19:46:08.345Z,100254.78
2023-03-29T19:51:12.457Z,100251.91
2023-03-29T19:56:16.133Z,100259.16
2023-03-29T20:01:22.922Z,100251.13
2023-03-29T20:06:28.864Z,100257.31
2023-03-29T20:11:31.450Z,100259.38
2023-03-29T20:16:35.042Z,100259.03
2023-03-29T20:21:37.847Z,100243.56
2023-03-29T20:26:40.640Z,100238.22
2023-03-29T20:31:43.709Z,100245.50
2023-03-29T20:36:47.060Z,100244.03
2023-03-29T20:41:51.806Z,100251.31
2023-03-29T20:47:06.880Z,100252.94
2023-03-29T20:52:17.879Z,100250.69
2023-03-29T20:57:21.418Z,100261.63
2023-03-29T21:02:24.269Z,100249.25
2023-03-29T21:07:26.929Z,100248.84
2023-03-29T21:12:29.562Z,100241.41
2023-03-29T21:17:32.414Z,100239.50
2023-03-29T21:22:35.145Z,100245.28
2023-03-29T21:27:38.735Z,100232.06
2023-03-29T21:32:41.518Z,100230.00
2023-03-29T21:37:44.295Z,100230.81
2023-03-29T21:42:46.954Z,100235.97
2023-03-29T21:47:49.757Z,100225.66
2023-03-29T21:52:52.814Z,100230.41
2023-03-29T21:57:55.506Z,100232.69
2023-03-29T22:02:59.066Z,100217.41
2023-03-29T22:08:01.554Z,100219.88
2023-03-29T22:13:04.460Z,100198.41
2023-03-29T22:18:08.431Z,100195.09
2023-03-29T22:23:10.912Z,100186.84
2023-03-29T22:28:13.934Z,100187.88
2023-03-29T22:33:17.218Z,100186.81
2023-03-29T22:38:20.030Z,100175.88
2023-03-29T22:43:22.594Z,100183.91
2023-03-29T22:48:25.528Z,100192.53
2023-03-29T22:53:28.489Z,100190.03
2023-03-29T22:58:31.555Z,100187.59
2023-03-29T23:03:34.802Z,100182.22
2023-03-29T23:08:37.572Z,100182.22
2023-03-29T23:13:40.453Z,100167.19
2023-03-29T23:18:43.295Z,100182.88
2023-03-29T23:23:45.982Z,100174.59
2023-03-29T23:28:48.809Z,100182.44
2023-03-29T23:33:53.324Z,100193.56
2023-03-29T23:38:56.210Z,100178.53
2023-03-29T23:43:58.766Z,100173.78
2023-03-29T23:49:01.383Z,100177.94
2023-03-29T23:54:04.374Z,100172.13
2023-03-29T23:59:06.984Z,100163.44
